sensor_id;sensor_type;location;lat;lon;timestamp;temperature;humidity
3921;DHT22;1975;49.356;6.816;2022-12-18T00:00:40;1.90;99.90
3921;DHT22;1975;49.356;6.816;2022-12-18T00:03:06;1.70;99.90
3921;DHT22;1975;49.356;6.816;2022-12-18T00:05:31;1.70;99.90
3921;DHT22;1975;49.356;6.816;2022-12-18T00:07:57;1.80;99.90
3921;DHT22;1975;49.356;6.816;2022-12-18T00:10:22;1.90;99.90
3921;DHT22;1975;49.356;6.816;2022-12-18T00:12:48;1.90;99.90
3921;DHT22;1975;49.356;6.816;2022-12-18T00:15:13;1.70;99.90
3921;DHT22;1975;49.356;6.816;2022-12-18T00:17:39;1.70;99.90
3921;DHT22;1975;49.356;6.816;2022-12-18T00:20:04;1.70;99.90
3921;DHT22;1975;49.356;6.816;2022-12-18T00:22:30;1.80;99.90
3921;DHT22;1975;49.356;6.816;2022-12-18T00:24:55;1.90;99.90
3921;DHT22;1975;49.356;6.816;2022-12-18T00:27:21;1.80;99.90
3921;DHT22;1975;49.356;6.816;2022-12-18T00:29:47;1.70;99.90
3921;DHT22;1975;49.356;6.816;2022-12-18T00:32:13;1.70;99.90
3921;DHT22;1975;49.356;6.816;2022-12-18T00:34:38;1.80;99.90
3921;DHT22;1975;49.356;6.816;2022-12-18T00:37:03;1.90;99.90
3921;DHT22;1975;49.356;6.816;2022-12-18T00:39:29;2.00;99.90
3921;DHT22;1975;49.356;6.816;2022-12-18T00:41:54;1.90;99.90
3921;DHT22;1975;49.356;6.816;2022-12-18T00:44:39;1.80;99.90
3921;DHT22;1975;49.356;6.816;2022-12-18T00:47:04;1.80;99.90
3921;DHT22;1975;49.356;6.816;2022-12-18T00:49:29;1.90;99.90
3921;DHT22;1975;49.356;6.816;2022-12-18T00:51:55;1.90;99.90
3921;DHT22;1975;49.356;6.816;2022-12-18T00:54:20;1.80;99.90
3921;DHT22;1975;49.356;6.816;2022-12-18T00:56:46;1.70;99.90
3921;DHT22;1975;49.356;6.816;2022-12-18T00:59:11;1.80;99.90
3921;DHT22;1975;49.356;6.816;2022-12-18T01:01:37;1.90;99.90
3921;DHT22;1975;49.356;6.816;2022-12-18T01:04:02;1.90;99.90
3921;DHT22;1975;49.356;6.816;2022-12-18T01:06:28;1.80;99.90
3921;DHT22;1975;49.356;6.816;2022-12-18T01:08:54;1.80;99.90
3921;DHT22;1975;49.356;6.816;2022-12-18T01:11:20;1.90;99.90
3921;DHT22;1975;49.356;6.816;2022-12-18T01:13:46;1.90;99.90
3921;DHT22;1975;49.356;6.816;2022-12-18T01:16:12;1.80;99.90
3921;DHT22;1975;49.356;6.816;2022-12-18T01:18:37;1.70;99.90
3921;DHT22;1975;49.356;6.816;2022-12-18T01:21:10;1.80;99.90
3921;DHT22;1975;49.356;6.816;2022-12-18T01:23:36;1.90;99.90
3921;DHT22;1975;49.356;6.816;2022-12-18T01:26:05;2.00;99.90
3921;DHT22;1975;49.356;6.816;2022-12-18T01:28:31;2.10;99.90
3921;DHT22;1975;49.356;6.816;2022-12-18T01:30:57;2.00;99.90
3921;DHT22;1975;49.356;6.816;2022-12-18T01:33:22;1.90;99.90
3921;DHT22;1975;49.356;6.816;2022-12-18T01:35:49;1.80;99.90
3921;DHT22;1975;49.356;6.816;2022-12-18T01:38:14;1.90;99.90
3921;DHT22;1975;49.356;6.816;2022-12-18T01:40:39;1.90;99.90
3921;DHT22;1975;49.356;6.816;2022-12-18T01:43:05;1.90;99.90
3921;DHT22;1975;49.356;6.816;2022-12-18T01:45:31;1.80;99.90
3921;DHT22;1975;49.356;6.816;2022-12-18T01:47:58;1.80;99.90
3921;DHT22;1975;49.356;6.816;2022-12-18T01:52:53;1.90;99.90
3921;DHT22;1975;49.356;6.816;2022-12-18T01:55:20;1.80;99.90
3921;DHT22;1975;49.356;6.816;2022-12-18T01:57:47;1.80;99.90
3921;DHT22;1975;49.356;6.816;2022-12-18T02:00:14;1.90;99.90
3921;DHT22;1975;49.356;6.816;2022-12-18T02:02:43;1.90;99.90
3921;DHT22;1975;49.356;6.816;2022-12-18T02:05:10;1.80;99.90
3921;DHT22;1975;49.356;6.816;2022-12-18T02:07:52;1.70;99.90
3921;DHT22;1975;49.356;6.816;2022-12-18T02:10:27;1.80;99.90
3921;DHT22;1975;49.356;6.816;2022-12-18T02:13:02;1.90;99.90
3921;DHT22;1975;49.356;6.816;2022-12-18T02:15:39;1.80;99.90
3921;DHT22;1975;49.356;6.816;2022-12-18T02:18:07;1.70;99.90
3921;DHT22;1975;49.356;6.816;2022-12-18T02:20:36;1.80;99.90
3921;DHT22;1975;49.356;6.816;2022-12-18T02:23:06;1.90;99.90
3921;DHT22;1975;49.356;6.816;2022-12-18T02:25:54;1.90;99.90
3921;DHT22;1975;49.356;6.816;2022-12-18T02:28:26;1.70;99.90
3921;DHT22;1975;49.356;6.816;2022-12-18T02:30:53;1.70;99.90
3921;DHT22;1975;49.356;6.816;2022-12-18T02:33:21;1.90;99.90
3921;DHT22;1975;49.356;6.816;2022-12-18T02:35:47;1.80;99.90
3921;DHT22;1975;49.356;6.816;2022-12-18T02:38:13;1.70;99.90
3921;DHT22;1975;49.356;6.816;2022-12-18T02:40:39;1.70;99.90
3921;DHT22;1975;49.356;6.816;2022-12-18T02:43:09;1.80;99.90
3921;DHT22;1975;49.356;6.816;2022-12-18T02:45:36;1.80;99.90
3921;DHT22;1975;49.356;6.816;2022-12-18T02:48:02;1.70;99.90
3921;DHT22;1975;49.356;6.816;2022-12-18T02:58:16;1.70;99.90
3921;DHT22;1975;49.356;6.816;2022-12-18T03:00:53;1.60;99.90
3921;DHT22;1975;49.356;6.816;2022-12-18T03:03:46;1.80;99.90
3921;DHT22;1975;49.356;6.816;2022-12-18T03:06:10;1.80;99.90
3921;DHT22;1975;49.356;6.816;2022-12-18T03:08:39;1.70;99.90
3921;DHT22;1975;49.356;6.816;2022-12-18T03:11:07;1.60;99.90
3921;DHT22;1975;49.356;6.816;2022-12-18T03:13:50;1.70;99.90
3921;DHT22;1975;49.356;6.816;2022-12-18T03:16:18;1.80;99.90
3921;DHT22;1975;49.356;6.816;2022-12-18T03:18:46;1.70;99.90
3921;DHT22;1975;49.356;6.816;2022-12-18T03:21:13;1.60;99.90
3921;DHT22;1975;49.356;6.816;2022-12-18T03:23:48;1.70;99.90
3921;DHT22;1975;49.356;6.816;2022-12-18T03:26:15;1.70;99.90
3921;DHT22;1975;49.356;6.816;2022-12-18T03:28:42;1.60;99.90
3921;DHT22;1975;49.356;6.816;2022-12-18T03:31:09;1.60;99.90
3921;DHT22;1975;49.356;6.816;2022-12-18T03:33:46;1.70;99.90
3921;DHT22;1975;49.356;6.816;2022-12-18T03:36:13;1.80;99.90
3921;DHT22;1975;49.356;6.816;2022-12-18T03:38:39;1.70;99.90
3921;DHT22;1975;49.356;6.816;2022-12-18T03:48:43;1.70;99.90
3921;DHT22;1975;49.356;6.816;2022-12-18T03:51:10;1.60;99.90
3921;DHT22;1975;49.356;6.816;2022-12-18T03:53:47;1.60;99.90
3921;DHT22;1975;49.356;6.816;2022-12-18T03:56:14;1.70;99.90
3921;DHT22;1975;49.356;6.816;2022-12-18T03:58:41;1.70;99.90
3921;DHT22;1975;49.356;6.816;2022-12-18T04:01:07;1.60;99.90
3921;DHT22;1975;49.356;6.816;2022-12-18T04:03:34;1.50;99.90
3921;DHT22;1975;49.356;6.816;2022-12-18T04:06:00;1.60;99.90
3921;DHT22;1975;49.356;6.816;2022-12-18T04:08:26;1.60;99.90
3921;DHT22;1975;49.356;6.816;2022-12-18T04:10:52;1.60;99.90
3921;DHT22;1975;49.356;6.816;2022-12-18T04:13:36;1.50;99.90
3921;DHT22;1975;49.356;6.816;2022-12-18T04:16:02;1.50;99.90
3921;DHT22;1975;49.356;6.816;2022-12-18T04:18:28;1.60;99.90
3921;DHT22;1975;49.356;6.816;2022-12-18T04:20:53;1.60;99.90
3921;DHT22;1975;49.356;6.816;2022-12-18T04:23:19;1.50;99.90
3921;DHT22;1975;49.356;6.816;2022-12-18T04:25:44;1.50;99.90
3921;DHT22;1975;49.356;6.816;2022-12-18T04:28:10;1.60;99.90
3921;DHT22;1975;49.356;6.816;2022-12-18T04:30:35;1.60;99.90
3921;DHT22;1975;49.356;6.816;2022-12-18T04:33:01;1.50;99.90
3921;DHT22;1975;49.356;6.816;2022-12-18T04:35:26;1.50;99.90
3921;DHT22;1975;49.356;6.816;2022-12-18T04:37:52;1.50;99.90
3921;DHT22;1975;49.356;6.816;2022-12-18T04:40:17;1.60;99.90
3921;DHT22;1975;49.356;6.816;2022-12-18T04:42:43;1.70;99.90
3921;DHT22;1975;49.356;6.816;2022-12-18T04:45:08;1.80;99.90
3921;DHT22;1975;49.356;6.816;2022-12-18T04:47:34;1.80;99.90
3921;DHT22;1975;49.356;6.816;2022-12-18T04:49:59;1.90;99.90
3921;DHT22;1975;49.356;6.816;2022-12-18T04:52:25;1.90;99.90
3921;DHT22;1975;49.356;6.816;2022-12-18T04:54:50;1.90;99.90
3921;DHT22;1975;49.356;6.816;2022-12-18T04:57:16;2.00;99.90
3921;DHT22;1975;49.356;6.816;2022-12-18T04:59:43;2.00;99.90
3921;DHT22;1975;49.356;6.816;2022-12-18T05:02:09;2.00;99.90
3921;DHT22;1975;49.356;6.816;2022-12-18T05:04:34;2.00;99.90
3921;DHT22;1975;49.356;6.816;2022-12-18T05:07:00;2.00;99.90
3921;DHT22;1975;49.356;6.816;2022-12-18T05:09:25;2.00;99.90
3921;DHT22;1975;49.356;6.816;2022-12-18T05:11:51;1.80;99.90
3921;DHT22;1975;49.356;6.816;2022-12-18T05:14:16;1.70;99.90
3921;DHT22;1975;49.356;6.816;2022-12-18T05:16:41;1.70;99.90
3921;DHT22;1975;49.356;6.816;2022-12-18T05:19:07;1.80;99.90
3921;DHT22;1975;49.356;6.816;2022-12-18T05:21:32;1.80;99.90
3921;DHT22;1975;49.356;6.816;2022-12-18T05:23:58;1.70;99.90
3921;DHT22;1975;49.356;6.816;2022-12-18T05:26:23;1.60;99.90
3921;DHT22;1975;49.356;6.816;2022-12-18T05:28:49;1.60;99.90
3921;DHT22;1975;49.356;6.816;2022-12-18T05:31:14;1.70;99.90
3921;DHT22;1975;49.356;6.816;2022-12-18T05:33:40;1.70;99.90
3921;DHT22;1975;49.356;6.816;2022-12-18T05:36:06;1.60;99.90
3921;DHT22;1975;49.356;6.816;2022-12-18T05:38:32;1.50;99.90
3921;DHT22;1975;49.356;6.816;2022-12-18T05:40:58;1.60;99.90
3921;DHT22;1975;49.356;6.816;2022-12-18T05:43:24;1.60;99.90
3921;DHT22;1975;49.356;6.816;2022-12-18T05:45:51;1.50;99.90
3921;DHT22;1975;49.356;6.816;2022-12-18T05:48:16;1.50;99.90
3921;DHT22;1975;49.356;6.816;2022-12-18T05:50:43;1.60;99.90
3921;DHT22;1975;49.356;6.816;2022-12-18T05:53:11;1.60;99.90
3921;DHT22;1975;49.356;6.816;2022-12-18T05:55:36;1.60;99.90
3921;DHT22;1975;49.356;6.816;2022-12-18T05:58:04;1.50;99.90
3921;DHT22;1975;49.356;6.816;2022-12-18T06:00:30;1.50;99.90
3921;DHT22;1975;49.356;6.816;2022-12-18T06:02:57;1.60;99.90
3921;DHT22;1975;49.356;6.816;2022-12-18T06:05:22;1.60;99.90
3921;DHT22;1975;49.356;6.816;2022-12-18T06:07:48;1.50;99.90
3921;DHT22;1975;49.356;6.816;2022-12-18T06:10:13;1.50;99.90
3921;DHT22;1975;49.356;6.816;2022-12-18T06:12:39;1.50;99.90
3921;DHT22;1975;49.356;6.816;2022-12-18T06:15:04;1.60;99.90
3921;DHT22;1975;49.356;6.816;2022-12-18T06:17:30;1.70;99.90
3921;DHT22;1975;49.356;6.816;2022-12-18T06:19:56;1.70;99.90
3921;DHT22;1975;49.356;6.816;2022-12-18T06:22:22;1.60;99.90
3921;DHT22;1975;49.356;6.816;2022-12-18T06:24:47;1.50;99.90
3921;DHT22;1975;49.356;6.816;2022-12-18T06:27:12;1.50;99.90
3921;DHT22;1975;49.356;6.816;2022-12-18T06:29:38;1.60;99.90
3921;DHT22;1975;49.356;6.816;2022-12-18T06:32:03;1.60;99.90
3921;DHT22;1975;49.356;6.816;2022-12-18T06:34:29;1.70;99.90
3921;DHT22;1975;49.356;6.816;2022-12-18T06:36:55;1.70;99.90
3921;DHT22;1975;49.356;6.816;2022-12-18T06:39:21;1.70;99.90
3921;DHT22;1975;49.356;6.816;2022-12-18T06:41:46;1.60;99.90
3921;DHT22;1975;49.356;6.816;2022-12-18T06:44:12;1.50;99.90
3921;DHT22;1975;49.356;6.816;2022-12-18T06:46:37;1.50;99.90
3921;DHT22;1975;49.356;6.816;2022-12-18T06:49:03;1.60;99.90
3921;DHT22;1975;49.356;6.816;2022-12-18T06:51:29;1.50;99.90
3921;DHT22;1975;49.356;6.816;2022-12-18T06:53:54;1.40;99.90
3921;DHT22;1975;49.356;6.816;2022-12-18T06:56:19;1.40;99.90
3921;DHT22;1975;49.356;6.816;2022-12-18T06:58:45;1.50;99.90
3921;DHT22;1975;49.356;6.816;2022-12-18T07:01:11;1.60;99.90
3921;DHT22;1975;49.356;6.816;2022-12-18T07:03:39;1.70;99.90
3921;DHT22;1975;49.356;6.816;2022-12-18T07:06:05;1.60;99.90
3921;DHT22;1975;49.356;6.816;2022-12-18T07:08:31;1.50;99.90
3921;DHT22;1975;49.356;6.816;2022-12-18T07:10:57;1.40;99.90
3921;DHT22;1975;49.356;6.816;2022-12-18T07:13:22;1.50;99.90
3921;DHT22;1975;49.356;6.816;2022-12-18T07:15:48;1.60;99.90
3921;DHT22;1975;49.356;6.816;2022-12-18T07:18:13;1.60;99.90
3921;DHT22;1975;49.356;6.816;2022-12-18T07:20:39;1.50;99.90
3921;DHT22;1975;49.356;6.816;2022-12-18T07:23:05;1.40;99.90
3921;DHT22;1975;49.356;6.816;2022-12-18T07:25:33;1.40;99.90
3921;DHT22;1975;49.356;6.816;2022-12-18T07:27:59;1.60;99.90
3921;DHT22;1975;49.356;6.816;2022-12-18T07:30:24;1.60;99.90
3921;DHT22;1975;49.356;6.816;2022-12-18T07:32:50;1.70;99.90
3921;DHT22;1975;49.356;6.816;2022-12-18T07:35:15;1.60;99.90
3921;DHT22;1975;49.356;6.816;2022-12-18T07:37:41;1.50;99.90
3921;DHT22;1975;49.356;6.816;2022-12-18T07:40:06;1.40;99.90
3921;DHT22;1975;49.356;6.816;2022-12-18T07:42:32;1.50;99.90
3921;DHT22;1975;49.356;6.816;2022-12-18T07:44:58;1.60;99.90
3921;DHT22;1975;49.356;6.816;2022-12-18T07:47:23;1.70;99.90
3921;DHT22;1975;49.356;6.816;2022-12-18T07:49:49;1.70;99.90
3921;DHT22;1975;49.356;6.816;2022-12-18T07:52:14;1.60;99.90
3921;DHT22;1975;49.356;6.816;2022-12-18T07:54:40;1.40;99.90
3921;DHT22;1975;49.356;6.816;2022-12-18T07:57:06;1.40;99.90
3921;DHT22;1975;49.356;6.816;2022-12-18T07:59:31;1.50;99.90
3921;DHT22;1975;49.356;6.816;2022-12-18T08:01:56;1.60;99.90
3921;DHT22;1975;49.356;6.816;2022-12-18T08:04:22;1.60;99.90
3921;DHT22;1975;49.356;6.816;2022-12-18T08:06:47;1.50;99.90
3921;DHT22;1975;49.356;6.816;2022-12-18T08:09:13;1.40;99.90
3921;DHT22;1975;49.356;6.816;2022-12-18T08:11:39;1.40;99.90
3921;DHT22;1975;49.356;6.816;2022-12-18T08:14:04;1.50;99.90
3921;DHT22;1975;49.356;6.816;2022-12-18T08:16:30;1.70;99.90
3921;DHT22;1975;49.356;6.816;2022-12-18T08:18:55;1.70;99.90
3921;DHT22;1975;49.356;6.816;2022-12-18T08:21:22;1.70;99.90
3921;DHT22;1975;49.356;6.816;2022-12-18T08:23:49;1.60;99.90
3921;DHT22;1975;49.356;6.816;2022-12-18T08:26:14;1.50;99.90
3921;DHT22;1975;49.356;6.816;2022-12-18T08:28:40;1.50;99.90
3921;DHT22;1975;49.356;6.816;2022-12-18T08:31:06;1.60;99.90
3921;DHT22;1975;49.356;6.816;2022-12-18T08:33:32;1.60;99.90
3921;DHT22;1975;49.356;6.816;2022-12-18T08:36:00;1.60;99.90
3921;DHT22;1975;49.356;6.816;2022-12-18T08:38:26;1.50;99.90
3921;DHT22;1975;49.356;6.816;2022-12-18T08:41:01;1.50;99.90
3921;DHT22;1975;49.356;6.816;2022-12-18T08:43:27;1.50;99.90
3921;DHT22;1975;49.356;6.816;2022-12-18T08:46:11;1.60;99.90
3921;DHT22;1975;49.356;6.816;2022-12-18T08:48:36;1.60;99.90
3921;DHT22;1975;49.356;6.816;2022-12-18T08:51:02;1.50;99.90
3921;DHT22;1975;49.356;6.816;2022-12-18T08:53:27;1.40;99.90
3921;DHT22;1975;49.356;6.816;2022-12-18T08:55:53;1.50;99.90
3921;DHT22;1975;49.356;6.816;2022-12-18T08:58:19;1.60;99.90
3921;DHT22;1975;49.356;6.816;2022-12-18T09:00:44;1.50;99.90
3921;DHT22;1975;49.356;6.816;2022-12-18T09:03:13;1.40;99.90
3921;DHT22;1975;49.356;6.816;2022-12-18T09:05:38;1.50;99.90
3921;DHT22;1975;49.356;6.816;2022-12-18T09:08:04;1.50;99.90
3921;DHT22;1975;49.356;6.816;2022-12-18T09:10:29;1.60;99.90
3921;DHT22;1975;49.356;6.816;2022-12-18T09:12:55;1.50;99.90
3921;DHT22;1975;49.356;6.816;2022-12-18T09:15:21;1.40;99.90
3921;DHT22;1975;49.356;6.816;2022-12-18T09:17:47;1.50;99.90
3921;DHT22;1975;49.356;6.816;2022-12-18T09:20:13;1.60;99.90
3921;DHT22;1975;49.356;6.816;2022-12-18T09:22:39;1.60;99.90
3921;DHT22;1975;49.356;6.816;2022-12-18T09:25:04;1.50;99.90
3921;DHT22;1975;49.356;6.816;2022-12-18T09:27:32;1.50;99.90
3921;DHT22;1975;49.356;6.816;2022-12-18T09:29:58;1.60;99.90
3921;DHT22;1975;49.356;6.816;2022-12-18T09:32:23;1.60;99.90
3921;DHT22;1975;49.356;6.816;2022-12-18T09:34:48;1.60;99.90
3921;DHT22;1975;49.356;6.816;2022-12-18T09:37:14;1.50;99.90
3921;DHT22;1975;49.356;6.816;2022-12-18T09:39:40;1.40;99.90
3921;DHT22;1975;49.356;6.816;2022-12-18T09:42:05;1.50;99.90
3921;DHT22;1975;49.356;6.816;2022-12-18T09:44:39;1.40;99.90
3921;DHT22;1975;49.356;6.816;2022-12-18T09:47:09;1.20;99.90
3921;DHT22;1975;49.356;6.816;2022-12-18T09:49:37;1.10;99.90
3921;DHT22;1975;49.356;6.816;2022-12-18T09:52:05;1.20;99.90
3921;DHT22;1975;49.356;6.816;2022-12-18T09:54:40;1.40;99.90
3921;DHT22;1975;49.356;6.816;2022-12-18T09:57:06;1.50;99.90
3921;DHT22;1975;49.356;6.816;2022-12-18T09:59:35;1.40;99.90
3921;DHT22;1975;49.356;6.816;2022-12-18T10:02:14;1.30;99.90
3921;DHT22;1975;49.356;6.816;2022-12-18T10:04:41;1.40;99.90
3921;DHT22;1975;49.356;6.816;2022-12-18T10:07:09;1.50;99.90
3921;DHT22;1975;49.356;6.816;2022-12-18T10:09:39;1.50;99.90
3921;DHT22;1975;49.356;6.816;2022-12-18T10:12:12;1.40;99.90
3921;DHT22;1975;49.356;6.816;2022-12-18T10:14:41;1.40;99.90
3921;DHT22;1975;49.356;6.816;2022-12-18T10:17:21;1.50;99.90
3921;DHT22;1975;49.356;6.816;2022-12-18T10:20:09;1.60;99.90
3921;DHT22;1975;49.356;6.816;2022-12-18T10:27:45;1.40;99.90
3921;DHT22;1975;49.356;6.816;2022-12-18T10:30:18;1.50;99.90
3921;DHT22;1975;49.356;6.816;2022-12-18T10:32:44;1.70;99.90
3921;DHT22;1975;49.356;6.816;2022-12-18T10:35:43;1.60;99.90
3921;DHT22;1975;49.356;6.816;2022-12-18T10:38:02;1.40;99.90
3921;DHT22;1975;49.356;6.816;2022-12-18T10:40:28;1.40;99.90
3921;DHT22;1975;49.356;6.816;2022-12-18T10:43:04;1.60;99.90
3921;DHT22;1975;49.356;6.816;2022-12-18T10:45:30;1.60;99.90
3921;DHT22;1975;49.356;6.816;2022-12-18T10:47:55;1.50;99.90
3921;DHT22;1975;49.356;6.816;2022-12-18T10:50:29;1.40;99.90
3921;DHT22;1975;49.356;6.816;2022-12-18T10:52:56;1.50;99.90
3921;DHT22;1975;49.356;6.816;2022-12-18T10:55:22;1.60;99.90
3921;DHT22;1975;49.356;6.816;2022-12-18T10:57:47;1.70;99.90
3921;DHT22;1975;49.356;6.816;2022-12-18T11:00:27;1.80;99.90
3921;DHT22;1975;49.356;6.816;2022-12-18T11:02:53;1.80;99.90
3921;DHT22;1975;49.356;6.816;2022-12-18T11:07:49;1.60;99.90
3921;DHT22;1975;49.356;6.816;2022-12-18T11:10:23;1.50;99.90
3921;DHT22;1975;49.356;6.816;2022-12-18T11:12:50;1.60;99.90
3921;DHT22;1975;49.356;6.816;2022-12-18T11:15:16;1.70;99.90
3921;DHT22;1975;49.356;6.816;2022-12-18T11:17:44;1.70;99.90
3921;DHT22;1975;49.356;6.816;2022-12-18T11:22:44;1.70;99.90
3921;DHT22;1975;49.356;6.816;2022-12-18T11:25:19;1.60;99.90
3921;DHT22;1975;49.356;6.816;2022-12-18T11:27:48;1.60;99.90
3921;DHT22;1975;49.356;6.816;2022-12-18T11:32:43;1.60;99.90
3921;DHT22;1975;49.356;6.816;2022-12-18T11:35:12;1.50;99.90
3921;DHT22;1975;49.356;6.816;2022-12-18T11:37:41;1.50;99.90
3921;DHT22;1975;49.356;6.816;2022-12-18T11:40:11;1.60;99.90
3921;DHT22;1975;49.356;6.816;2022-12-18T11:42:46;1.60;99.90
3921;DHT22;1975;49.356;6.816;2022-12-18T11:47:56;1.50;99.90
3921;DHT22;1975;49.356;6.816;2022-12-18T11:50:24;1.60;99.90
3921;DHT22;1975;49.356;6.816;2022-12-18T11:52:50;1.70;99.90
3921;DHT22;1975;49.356;6.816;2022-12-18T11:55:19;1.70;99.90
3921;DHT22;1975;49.356;6.816;2022-12-18T11:57:57;1.60;99.90
3921;DHT22;1975;49.356;6.816;2022-12-18T12:00:25;1.50;99.90
3921;DHT22;1975;49.356;6.816;2022-12-18T12:05:36;1.70;99.90
3921;DHT22;1975;49.356;6.816;2022-12-18T12:20:47;1.80;99.90
3921;DHT22;1975;49.356;6.816;2022-12-18T12:23:17;1.70;99.90
3921;DHT22;1975;49.356;6.816;2022-12-18T12:26:06;1.70;99.90
3921;DHT22;1975;49.356;6.816;2022-12-18T12:28:52;1.60;99.90
3921;DHT22;1975;49.356;6.816;2022-12-18T12:31:33;1.60;99.90
3921;DHT22;1975;49.356;6.816;2022-12-18T12:34:13;1.70;99.90
3921;DHT22;1975;49.356;6.816;2022-12-18T12:36:58;1.70;99.90
3921;DHT22;1975;49.356;6.816;2022-12-18T12:39:27;1.60;99.90
3921;DHT22;1975;49.356;6.816;2022-12-18T12:41:54;1.50;99.90
3921;DHT22;1975;49.356;6.816;2022-12-18T12:44:43;1.60;99.90
3921;DHT22;1975;49.356;6.816;2022-12-18T12:47:20;1.80;99.90
3921;DHT22;1975;49.356;6.816;2022-12-18T12:49:47;1.70;99.90
3921;DHT22;1975;49.356;6.816;2022-12-18T12:54:38;1.60;99.90
3921;DHT22;1975;49.356;6.816;2022-12-18T12:57:18;1.70;99.90
3921;DHT22;1975;49.356;6.816;2022-12-18T13:04:45;1.60;99.90
3921;DHT22;1975;49.356;6.816;2022-12-18T13:07:14;1.60;99.90
3921;DHT22;1975;49.356;6.816;2022-12-18T13:12:25;1.90;99.90
3921;DHT22;1975;49.356;6.816;2022-12-18T13:23:23;1.80;99.90
3921;DHT22;1975;49.356;6.816;2022-12-18T13:25:54;1.80;99.90
3921;DHT22;1975;49.356;6.816;2022-12-18T13:30:47;1.60;99.90
3921;DHT22;1975;49.356;6.816;2022-12-18T13:35:39;1.80;99.90
3921;DHT22;1975;49.356;6.816;2022-12-18T13:45:43;1.70;99.90
3921;DHT22;1975;49.356;6.816;2022-12-18T13:48:21;1.80;99.90
3921;DHT22;1975;49.356;6.816;2022-12-18T13:50:52;1.90;99.90
3921;DHT22;1975;49.356;6.816;2022-12-18T13:53:22;1.80;99.90
3921;DHT22;1975;49.356;6.816;2022-12-18T13:55:48;1.70;99.90
3921;DHT22;1975;49.356;6.816;2022-12-18T13:58:14;1.80;99.90
3921;DHT22;1975;49.356;6.816;2022-12-18T14:00:42;1.90;99.90
3921;DHT22;1975;49.356;6.816;2022-12-18T14:03:16;1.90;99.90
3921;DHT22;1975;49.356;6.816;2022-12-18T14:05:42;1.90;99.90
3921;DHT22;1975;49.356;6.816;2022-12-18T14:08:13;1.80;99.90
3921;DHT22;1975;49.356;6.816;2022-12-18T14:10:43;1.80;99.90
3921;DHT22;1975;49.356;6.816;2022-12-18T14:13:10;1.90;99.90
3921;DHT22;1975;49.356;6.816;2022-12-18T14:15:39;1.90;99.90
3921;DHT22;1975;49.356;6.816;2022-12-18T14:18:19;1.90;99.90
3921;DHT22;1975;49.356;6.816;2022-12-18T14:20:45;1.80;99.90
3921;DHT22;1975;49.356;6.816;2022-12-18T14:25:56;1.90;99.90
3921;DHT22;1975;49.356;6.816;2022-12-18T14:28:21;1.90;99.90
3921;DHT22;1975;49.356;6.816;2022-12-18T14:30:47;1.80;99.90
3921;DHT22;1975;49.356;6.816;2022-12-18T14:33:17;1.80;99.90
3921;DHT22;1975;49.356;6.816;2022-12-18T14:36:03;1.90;99.90
3921;DHT22;1975;49.356;6.816;2022-12-18T14:40:58;1.90;99.90
3921;DHT22;1975;49.356;6.816;2022-12-18T14:43:25;1.80;99.90
3921;DHT22;1975;49.356;6.816;2022-12-18T14:45:51;1.90;99.90
3921;DHT22;1975;49.356;6.816;2022-12-18T14:48:18;2.00;99.90
3921;DHT22;1975;49.356;6.816;2022-12-18T14:50:44;1.90;99.90
3921;DHT22;1975;49.356;6.816;2022-12-18T14:53:20;1.80;99.90
3921;DHT22;1975;49.356;6.816;2022-12-18T14:55:48;1.90;99.90
3921;DHT22;1975;49.356;6.816;2022-12-18T14:58:14;2.00;99.90
3921;DHT22;1975;49.356;6.816;2022-12-18T15:00:41;1.90;99.90
3921;DHT22;1975;49.356;6.816;2022-12-18T15:03:06;1.80;99.90
3921;DHT22;1975;49.356;6.816;2022-12-18T15:05:32;1.80;99.90
3921;DHT22;1975;49.356;6.816;2022-12-18T15:07:59;2.00;99.90
3921;DHT22;1975;49.356;6.816;2022-12-18T15:10:26;2.00;99.90
3921;DHT22;1975;49.356;6.816;2022-12-18T15:17:58;1.90;99.90
3921;DHT22;1975;49.356;6.816;2022-12-18T15:20:31;1.90;99.90
3921;DHT22;1975;49.356;6.816;2022-12-18T15:22:57;1.80;99.90
3921;DHT22;1975;49.356;6.816;2022-12-18T15:25:29;1.90;99.90
3921;DHT22;1975;49.356;6.816;2022-12-18T15:27:56;2.00;99.90
3921;DHT22;1975;49.356;6.816;2022-12-18T15:30:22;2.00;99.90
3921;DHT22;1975;49.356;6.816;2022-12-18T15:32:49;1.80;99.90
3921;DHT22;1975;49.356;6.816;2022-12-18T15:35:16;1.90;99.90
3921;DHT22;1975;49.356;6.816;2022-12-18T15:37:42;2.00;99.90
3921;DHT22;1975;49.356;6.816;2022-12-18T15:40:11;2.00;99.90
3921;DHT22;1975;49.356;6.816;2022-12-18T15:42:37;1.90;99.90
3921;DHT22;1975;49.356;6.816;2022-12-18T15:45:21;1.80;99.90
3921;DHT22;1975;49.356;6.816;2022-12-18T15:47:46;2.00;99.90
3921;DHT22;1975;49.356;6.816;2022-12-18T15:50:12;2.10;99.90
3921;DHT22;1975;49.356;6.816;2022-12-18T15:52:41;2.00;99.90
3921;DHT22;1975;49.356;6.816;2022-12-18T15:55:15;1.90;99.90
3921;DHT22;1975;49.356;6.816;2022-12-18T15:57:59;1.90;99.90
3921;DHT22;1975;49.356;6.816;2022-12-18T16:00:24;2.00;99.90
3921;DHT22;1975;49.356;6.816;2022-12-18T16:02:50;2.00;99.90
3921;DHT22;1975;49.356;6.816;2022-12-18T16:05:16;1.90;99.90
3921;DHT22;1975;49.356;6.816;2022-12-18T16:07:42;1.90;99.90
3921;DHT22;1975;49.356;6.816;2022-12-18T16:10:08;1.90;99.90
3921;DHT22;1975;49.356;6.816;2022-12-18T16:12:33;2.10;99.90
3921;DHT22;1975;49.356;6.816;2022-12-18T16:14:59;2.00;99.90
3921;DHT22;1975;49.356;6.816;2022-12-18T16:17:24;1.90;99.90
3921;DHT22;1975;49.356;6.816;2022-12-18T16:19:50;1.90;99.90
3921;DHT22;1975;49.356;6.816;2022-12-18T16:22:18;2.00;99.90
3921;DHT22;1975;49.356;6.816;2022-12-18T16:24:45;2.10;99.90
3921;DHT22;1975;49.356;6.816;2022-12-18T16:27:10;2.00;99.90
3921;DHT22;1975;49.356;6.816;2022-12-18T16:29:35;1.90;99.90
3921;DHT22;1975;49.356;6.816;2022-12-18T16:32:01;2.00;99.90
3921;DHT22;1975;49.356;6.816;2022-12-18T16:34:27;2.00;99.90
3921;DHT22;1975;49.356;6.816;2022-12-18T16:36:57;2.00;99.90
3921;DHT22;1975;49.356;6.816;2022-12-18T16:39:24;1.90;99.90
3921;DHT22;1975;49.356;6.816;2022-12-18T16:41:49;2.00;99.90
3921;DHT22;1975;49.356;6.816;2022-12-18T16:44:15;2.10;99.90
3921;DHT22;1975;49.356;6.816;2022-12-18T16:46:41;2.10;99.90
3921;DHT22;1975;49.356;6.816;2022-12-18T16:49:13;2.00;99.90
3921;DHT22;1975;49.356;6.816;2022-12-18T16:51:38;1.90;99.90
3921;DHT22;1975;49.356;6.816;2022-12-18T16:54:04;2.00;99.90
3921;DHT22;1975;49.356;6.816;2022-12-18T16:56:30;2.10;99.90
3921;DHT22;1975;49.356;6.816;2022-12-18T16:58:56;2.10;99.90
3921;DHT22;1975;49.356;6.816;2022-12-18T17:01:22;2.00;99.90
3921;DHT22;1975;49.356;6.816;2022-12-18T17:03:52;2.00;99.90
3921;DHT22;1975;49.356;6.816;2022-12-18T17:06:18;2.10;99.90
3921;DHT22;1975;49.356;6.816;2022-12-18T17:08:43;2.10;99.90
3921;DHT22;1975;49.356;6.816;2022-12-18T17:11:09;2.10;99.90
3921;DHT22;1975;49.356;6.816;2022-12-18T17:13:34;2.00;99.90
3921;DHT22;1975;49.356;6.816;2022-12-18T17:16:03;2.00;99.90
3921;DHT22;1975;49.356;6.816;2022-12-18T17:18:29;2.10;99.90
3921;DHT22;1975;49.356;6.816;2022-12-18T17:20:59;2.20;99.90
3921;DHT22;1975;49.356;6.816;2022-12-18T17:23:25;2.10;99.90
3921;DHT22;1975;49.356;6.816;2022-12-18T17:25:53;2.00;99.90
3921;DHT22;1975;49.356;6.816;2022-12-18T17:28:18;2.00;99.90
3921;DHT22;1975;49.356;6.816;2022-12-18T17:30:44;2.10;99.90
3921;DHT22;1975;49.356;6.816;2022-12-18T17:33:09;2.10;99.90
3921;DHT22;1975;49.356;6.816;2022-12-18T17:35:35;2.10;99.90
3921;DHT22;1975;49.356;6.816;2022-12-18T17:38:01;2.00;99.90
3921;DHT22;1975;49.356;6.816;2022-12-18T17:40:26;2.10;99.90
3921;DHT22;1975;49.356;6.816;2022-12-18T17:42:52;2.20;99.90
3921;DHT22;1975;49.356;6.816;2022-12-18T17:45:18;2.10;99.90
3921;DHT22;1975;49.356;6.816;2022-12-18T17:47:43;2.00;99.90
3921;DHT22;1975;49.356;6.816;2022-12-18T17:50:08;2.00;99.90